Time;durP1;ratioP1;P1;durP2;ratioP2;P2;SDS_P1;SDS_P2;PMS_P1;PMS_P2;Temp;Humidity;BMP_temperature;BMP_pressure;BME280_temperature;BME280_humidity;BME280_pressure;Samples;Min_cycle;Max_cycle;Signal;HPM_P1;HPM_P2
2021/01/23 00:02:09;;;;;;;8.50;1.77;;;;;;;;;;4952381;28;20426;-41
2021/01/23 00:04:36;;;;;;;16.17;2.28;;;;;;;;;;4953293;28;20486;-43
2021/01/23 00:07:04;;;;;;;15.80;2.25;;;;;;;;;;4952523;28;20027;-42
2021/01/23 00:09:31;;;;;;;10.70;2.28;;;;;;;;;;4953052;28;20035;-41
2021/01/23 00:11:58;;;;;;;7.53;1.90;;;;;;;;;;4952269;28;20038;-43
2021/01/23 00:14:25;;;;;;;14.07;2.40;;;;;;;;;;4952762;28;20030;-45
2021/01/23 00:16:52;;;;;;;12.07;1.98;;;;;;;;;;4953070;28;20059;-44
2021/01/23 00:19:19;;;;;;;8.20;2.05;;;;;;;;;;4952295;28;20020;-41
2021/01/23 00:21:46;;;;;;;10.50;2.10;;;;;;;;;;4952556;28;20109;-42
2021/01/23 00:24:13;;;;;;;11.05;1.80;;;;;;;;;;4952227;28;20023;-42
2021/01/23 00:26:43;;;;;;;6.43;1.95;;;;;;;;;;4952839;28;20077;-42
2021/01/23 00:29:14;;;;;;;14.27;2.40;;;;;;;;;;4952217;28;20031;-42
2021/01/23 00:31:41;;;;;;;11.38;2.15;;;;;;;;;;4952349;28;20104;-45
2021/01/23 00:34:08;;;;;;;15.75;2.40;;;;;;;;;;4952716;28;20115;-42
2021/01/23 00:36:36;;;;;;;10.20;2.10;;;;;;;;;;4952191;28;20098;-46
2021/01/23 00:39:04;;;;;;;7.78;2.45;;;;;;;;;;4952619;28;20077;-42
2021/01/23 00:41:31;;;;;;;9.73;2.08;;;;;;;;;;4953838;28;20050;-41
2021/01/23 00:43:59;;;;;;;13.02;2.83;;;;;;;;;;4934920;28;20379;-41
2021/01/23 00:46:26;;;;;;;12.15;2.30;;;;;;;;;;4951063;28;20065;-42
2021/01/23 00:48:53;;;;;;;12.55;2.30;;;;;;;;;;4965085;28;20088;-42
2021/01/23 00:51:20;;;;;;;20.13;2.65;;;;;;;;;;4948493;28;20528;-46
2021/01/23 00:53:47;;;;;;;13.43;2.47;;;;;;;;;;4951292;28;20363;-53
2021/01/23 00:56:14;;;;;;;29.95;3.22;;;;;;;;;;4951809;28;20027;-57
2021/01/23 00:58:41;;;;;;;30.77;3.75;;;;;;;;;;4950430;28;20023;-42
2021/01/23 01:01:08;;;;;;;30.27;3.70;;;;;;;;;;4950358;28;20045;-42
2021/01/23 01:03:35;;;;;;;22.92;3.00;;;;;;;;;;4950897;28;20051;-42
2021/01/23 01:06:02;;;;;;;25.77;3.50;;;;;;;;;;4951470;28;20045;-50
2021/01/23 01:08:29;;;;;;;32.80;4.00;;;;;;;;;;4950866;28;20031;-54
2021/01/23 01:10:57;;;;;;;26.13;3.55;;;;;;;;;;4951017;28;20030;-42
2021/01/23 01:13:24;;;;;;;19.35;3.03;;;;;;;;;;4950920;28;20122;-42
2021/01/23 01:15:51;;;;;;;21.05;3.00;;;;;;;;;;4951569;28;20024;-42
2021/01/23 01:18:18;;;;;;;34.08;4.13;;;;;;;;;;4918107;29;20118;-43
2021/01/23 01:20:45;;;;;;;28.23;2.88;;;;;;;;;;4947363;28;20032;-41
2021/01/23 01:23:12;;;;;;;15.57;2.92;;;;;;;;;;4950503;28;20085;-42
2021/01/23 01:25:39;;;;;;;27.98;3.60;;;;;;;;;;4950544;28;20081;-41
2021/01/23 01:28:06;;;;;;;25.35;3.60;;;;;;;;;;4951832;28;20043;-46
2021/01/23 01:30:33;;;;;;;20.70;2.58;;;;;;;;;;4947790;28;20016;-42
2021/01/23 01:33:00;;;;;;;22.45;3.30;;;;;;;;;;4950294;28;20068;-46
2021/01/23 01:35:27;;;;;;;29.50;4.07;;;;;;;;;;4974016;28;20024;-44
2021/01/23 01:37:54;;;;;;;23.50;3.00;;;;;;;;;;5029068;28;20033;-43
2021/01/23 01:40:21;;;;;;;22.42;2.60;;;;;;;;;;4939624;28;20027;-43
2021/01/23 01:42:48;;;;;;;27.63;2.85;;;;;;;;;;4955044;28;20023;-43
2021/01/23 01:45:16;;;;;;;13.15;2.25;;;;;;;;;;4972179;28;20038;-43
2021/01/23 01:47:43;;;;;;;25.88;3.05;;;;;;;;;;4950231;28;20077;-43
2021/01/23 01:50:13;;;;;;;16.98;2.72;;;;;;;;;;4950346;28;20041;-44
2021/01/23 01:52:42;;;;;;;23.05;2.80;;;;;;;;;;4949702;28;20099;-45
2021/01/23 01:55:13;;;;;;;13.55;1.90;;;;;;;;;;4950753;28;20015;-45
2021/01/23 01:57:40;;;;;;;19.80;2.00;;;;;;;;;;4950356;28;20035;-45
2021/01/23 02:00:08;;;;;;;17.15;1.98;;;;;;;;;;4951100;28;20024;-44
2021/01/23 02:02:41;;;;;;;11.35;1.83;;;;;;;;;;4949782;28;20031;-45
2021/01/23 02:05:20;;;;;;;15.13;1.83;;;;;;;;;;4950864;28;20054;-48
2021/01/23 02:08:09;;;;;;;9.95;1.23;;;;;;;;;;4950595;28;20019;-44
2021/01/23 02:10:55;;;;;;;14.77;2.45;;;;;;;;;;4940350;28;20070;-47
2021/01/23 02:13:32;;;;;;;19.50;2.03;;;;;;;;;;4946845;28;20057;-49
2021/01/23 02:16:01;;;;;;;10.75;1.75;;;;;;;;;;4949484;28;20019;-41
2021/01/23 02:18:32;;;;;;;15.05;2.00;;;;;;;;;;4948899;28;20062;-43
2021/01/23 02:20:59;;;;;;;13.55;1.67;;;;;;;;;;5039488;28;20021;-43
2021/01/23 02:23:45;;;;;;;13.13;1.67;;;;;;;;;;5034472;28;20013;-45
2021/01/23 02:26:30;;;;;;;14.23;2.15;;;;;;;;;;5025308;28;20038;-44
2021/01/23 02:28:57;;;;;;;23.75;2.17;;;;;;;;;;4982499;28;20061;-43
2021/01/23 02:31:26;;;;;;;18.13;1.95;;;;;;;;;;4965147;28;20407;-42
2021/01/23 02:33:54;;;;;;;19.15;1.63;;;;;;;;;;4963307;28;20023;-43
2021/01/23 02:36:25;;;;;;;23.35;1.90;;;;;;;;;;4963725;28;20450;-45
2021/01/23 02:38:53;;;;;;;19.27;1.88;;;;;;;;;;4964463;28;20031;-44
2021/01/23 02:41:20;;;;;;;15.32;2.05;;;;;;;;;;4963608;28;20421;-46
2021/01/23 02:43:48;;;;;;;17.35;1.80;;;;;;;;;;4958326;28;20051;-43
2021/01/23 02:46:17;;;;;;;8.43;1.33;;;;;;;;;;4949789;28;20027;-45
2021/01/23 02:48:44;;;;;;;15.60;1.17;;;;;;;;;;4950337;28;20109;-44
2021/01/23 02:51:19;;;;;;;8.73;1.38;;;;;;;;;;4946783;28;20490;-49
2021/01/23 02:53:49;;;;;;;13.80;1.40;;;;;;;;;;4979431;28;20094;-43
2021/01/23 02:56:18;;;;;;;9.77;1.42;;;;;;;;;;4985387;28;20393;-44
2021/01/23 02:58:46;;;;;;;14.23;2.30;;;;;;;;;;4959433;28;20029;-45
2021/01/23 03:01:19;;;;;;;9.88;1.70;;;;;;;;;;4966284;28;20023;-47
2021/01/23 03:03:56;;;;;;;10.57;1.60;;;;;;;;;;4953174;28;20024;-44
2021/01/23 03:06:23;;;;;;;7.57;1.75;;;;;;;;;;4948595;28;20120;-45
2021/01/23 03:08:51;;;;;;;13.52;1.70;;;;;;;;;;4948659;28;20027;-43
2021/01/23 03:11:23;;;;;;;9.07;1.80;;;;;;;;;;4958893;28;20063;-44
2021/01/23 03:13:52;;;;;;;10.15;1.55;;;;;;;;;;4958646;28;20042;-43
2021/01/23 03:16:19;;;;;;;15.82;1.70;;;;;;;;;;4948859;28;20027;-44
2021/01/23 03:18:46;;;;;;;9.65;1.40;;;;;;;;;;4948277;28;20035;-43
2021/01/23 03:21:13;;;;;;;13.35;1.40;;;;;;;;;;4948418;28;20092;-44
2021/01/23 03:23:40;;;;;;;15.85;1.63;;;;;;;;;;4949843;28;20022;-44
2021/01/23 03:26:07;;;;;;;18.80;1.52;;;;;;;;;;4952553;28;20494;-44
2021/01/23 03:28:34;;;;;;;12.55;1.63;;;;;;;;;;4952667;28;20027;-44
2021/01/23 03:31:02;;;;;;;19.63;1.95;;;;;;;;;;5018298;28;20031;-44
2021/01/23 03:33:32;;;;;;;12.88;1.10;;;;;;;;;;4951522;28;20038;-46
2021/01/23 03:36:00;;;;;;;12.88;1.67;;;;;;;;;;4942963;28;20043;-48
2021/01/23 03:38:27;;;;;;;13.55;1.88;;;;;;;;;;4953661;28;20027;-46
2021/01/23 03:40:54;;;;;;;20.63;2.53;;;;;;;;;;4950609;28;20489;-46
2021/01/23 03:43:21;;;;;;;9.07;1.40;;;;;;;;;;4942068;28;20128;-46
2021/01/23 03:45:48;;;;;;;6.18;1.60;;;;;;;;;;4945977;28;20028;-44
2021/01/23 03:48:15;;;;;;;12.40;1.55;;;;;;;;;;4943556;28;20027;-46
2021/01/23 03:50:42;;;;;;;16.60;1.02;;;;;;;;;;4943218;28;20043;-46
2021/01/23 03:53:09;;;;;;;11.77;1.40;;;;;;;;;;4941915;28;20082;-45
2021/01/23 03:55:37;;;;;;;11.55;1.30;;;;;;;;;;4943533;28;20023;-46
2021/01/23 03:58:04;;;;;;;7.90;1.42;;;;;;;;;;4952002;28;20085;-44
2021/01/23 04:00:31;;;;;;;8.55;1.00;;;;;;;;;;4946872;28;20062;-44
2021/01/23 04:02:58;;;;;;;8.90;1.38;;;;;;;;;;4944213;28;20122;-49
2021/01/23 04:05:25;;;;;;;10.80;1.23;;;;;;;;;;4952456;28;20027;-49
2021/01/23 04:07:52;;;;;;;7.50;1.55;;;;;;;;;;4938376;28;20487;-49
2021/01/23 04:10:19;;;;;;;10.40;1.90;;;;;;;;;;4932964;29;20028;-50
2021/01/23 04:12:46;;;;;;;17.35;1.10;;;;;;;;;;4933560;28;20097;-47
2021/01/23 04:15:13;;;;;;;8.10;1.17;;;;;;;;;;4933620;29;20024;-48
2021/01/23 04:17:40;;;;;;;9.55;1.10;;;;;;;;;;4933815;29;20470;-47
2021/01/23 04:20:08;;;;;;;12.68;1.83;;;;;;;;;;4933652;28;20023;-49
2021/01/23 04:22:35;;;;;;;10.15;1.65;;;;;;;;;;4916864;28;20024;-46
2021/01/23 04:25:04;;;;;;;12.57;1.13;;;;;;;;;;4933654;29;20016;-48
2021/01/23 04:27:31;;;;;;;7.35;1.05;;;;;;;;;;4933855;28;20805;-51
2021/01/23 04:29:58;;;;;;;10.73;1.20;;;;;;;;;;4937812;28;20382;-52
2021/01/23 04:32:25;;;;;;;10.80;1.52;;;;;;;;;;4936011;28;20078;-49
2021/01/23 04:34:52;;;;;;;9.63;1.35;;;;;;;;;;4950930;28;20024;-49
2021/01/23 04:37:19;;;;;;;7.88;0.75;;;;;;;;;;4952825;29;20027;-50
2021/01/23 04:39:47;;;;;;;8.68;1.33;;;;;;;;;;4952938;28;20024;-49
2021/01/23 04:42:14;;;;;;;7.57;1.30;;;;;;;;;;4952866;28;20475;-50
2021/01/23 04:44:41;;;;;;;7.55;0.82;;;;;;;;;;4953116;28;20051;-50
2021/01/23 04:47:08;;;;;;;8.40;1.10;;;;;;;;;;4952541;28;20767;-49
2021/01/23 04:49:35;;;;;;;8.05;1.05;;;;;;;;;;4952408;29;20027;-49
2021/01/23 04:52:04;;;;;;;11.23;0.90;;;;;;;;;;4952516;29;20134;-53
2021/01/23 04:54:31;;;;;;;6.55;1.10;;;;;;;;;;4952937;28;20016;-50
2021/01/23 04:56:58;;;;;;;5.50;1.23;;;;;;;;;;4952300;28;20483;-50
2021/01/23 04:59:25;;;;;;;9.82;1.02;;;;;;;;;;4952397;28;20031;-49
2021/01/23 05:02:11;;;;;;;14.23;1.42;;;;;;;;;;4952858;28;20061;-47
2021/01/23 05:04:47;;;;;;;11.18;1.80;;;;;;;;;;4952969;28;20015;-51
2021/01/23 05:07:26;;;;;;;7.97;0.90;;;;;;;;;;4952406;28;20038;-49
2021/01/23 05:09:54;;;;;;;11.10;1.45;;;;;;;;;;4952790;28;20027;-50
2021/01/23 05:12:36;;;;;;;6.80;0.90;;;;;;;;;;4952740;28;20089;-53
2021/01/23 05:15:03;;;;;;;;;;;;;;;;;;4953088;28;20024;-48
2021/01/23 05:17:30;;;;;;;6.22;1.20;;;;;;;;;;4952028;28;19906;-49
2021/01/23 05:19:57;;;;;;;7.43;1.20;;;;;;;;;;4952712;29;20034;-49
2021/01/23 05:22:24;;;;;;;10.40;1.15;;;;;;;;;;4952683;28;20429;-52
2021/01/23 05:24:52;;;;;;;7.32;1.48;;;;;;;;;;4952411;28;20035;-51
2021/01/23 05:27:19;;;;;;;4.07;1.00;;;;;;;;;;4952118;29;20095;-52
2021/01/23 05:29:57;;;;;;;8.95;1.23;;;;;;;;;;4935091;29;20510;-50
2021/01/23 05:32:25;;;;;;;4.78;1.33;;;;;;;;;;4952375;29;20063;-52
2021/01/23 05:34:52;;;;;;;6.55;1.40;;;;;;;;;;4952350;28;20059;-49
2021/01/23 05:37:33;;;;;;;7.97;0.90;;;;;;;;;;4935005;29;20437;-52
2021/01/23 05:40:00;;;;;;;7.35;1.38;;;;;;;;;;4952280;28;20015;-54
2021/01/23 05:42:27;;;;;;;8.20;1.15;;;;;;;;;;4952304;28;20077;-54
2021/01/23 05:45:13;;;;;;;10.52;1.17;;;;;;;;;;4952158;28;20100;-54
2021/01/23 05:47:41;;;;;;;7.10;1.05;;;;;;;;;;4951742;28;20031;-54
2021/01/23 05:50:09;;;;;;;4.93;1.08;;;;;;;;;;4951730;28;20100;-53
2021/01/23 05:52:36;;;;;;;6.63;1.23;;;;;;;;;;4952135;29;20031;-52
2021/01/23 05:55:04;;;;;;;3.83;1.00;;;;;;;;;;4951180;28;20019;-49
2021/01/23 05:57:31;;;;;;;7.28;1.50;;;;;;;;;;4950889;28;20038;-55
2021/01/23 05:59:58;;;;;;;8.30;1.30;;;;;;;;;;4950500;28;20027;-49
2021/01/23 06:02:26;;;;;;;8.32;1.20;;;;;;;;;;4951651;28;20023;-49
2021/01/23 06:04:53;;;;;;;9.93;1.75;;;;;;;;;;4951503;28;20465;-51
2021/01/23 06:07:40;;;;;;;8.68;1.27;;;;;;;;;;4951826;29;20027;-52
2021/01/23 06:10:23;;;;;;;13.30;1.65;;;;;;;;;;4961366;28;20138;-50
2021/01/23 06:12:50;;;;;;;9.95;1.30;;;;;;;;;;4951702;29;20039;-52
2021/01/23 06:15:33;;;;;;;10.52;1.52;;;;;;;;;;4951599;29;20033;-50
2021/01/23 06:18:00;;;;;;;9.25;1.20;;;;;;;;;;4951418;29;20084;-50
2021/01/23 06:20:42;;;;;;;5.10;1.10;;;;;;;;;;4951863;29;20034;-53
2021/01/23 06:23:17;;;;;;;6.10;1.10;;;;;;;;;;4951710;28;20106;-51
2021/01/23 06:25:50;;;;;;;20.52;1.42;;;;;;;;;;4951395;29;20023;-51
2021/01/23 06:28:18;;;;;;;6.20;1.20;;;;;;;;;;4951424;28;20073;-48
2021/01/23 06:30:45;;;;;;;10.63;1.35;;;;;;;;;;4951447;28;20035;-53
2021/01/23 06:33:24;;;;;;;7.78;1.35;;;;;;;;;;4951373;29;20077;-49
2021/01/23 06:36:03;;;;;;;11.35;1.38;;;;;;;;;;4951469;28;20042;-49
2021/01/23 06:38:31;;;;;;;7.97;1.20;;;;;;;;;;4951346;29;20039;-52
2021/01/23 06:41:18;;;;;;;6.10;1.20;;;;;;;;;;4950991;28;20027;-50
2021/01/23 06:44:03;;;;;;;5.28;1.20;;;;;;;;;;4960449;28;20031;-41
2021/01/23 06:46:30;;;;;;;5.13;1.20;;;;;;;;;;4951411;29;20039;-42
2021/01/23 06:49:00;;;;;;;8.93;1.33;;;;;;;;;;4950812;28;20024;-48
2021/01/23 06:51:27;;;;;;;7.82;1.10;;;;;;;;;;4950860;29;20074;-41
2021/01/23 06:54:14;;;;;;;8.38;1.27;;;;;;;;;;4933782;29;20051;-42
2021/01/23 06:56:46;;;;;;;6.57;1.10;;;;;;;;;;4951379;29;20050;-42
2021/01/23 06:59:28;;;;;;;7.90;1.10;;;;;;;;;;4950338;28;20023;-43
2021/01/23 07:02:00;;;;;;;17.77;1.80;;;;;;;;;;4951059;28;20094;-48
2021/01/23 07:04:27;;;;;;;11.77;1.48;;;;;;;;;;4934054;29;20050;-41
2021/01/23 07:06:55;;;;;;;12.25;1.20;;;;;;;;;;4951311;29;20080;-40
2021/01/23 07:09:41;;;;;;;9.10;1.20;;;;;;;;;;4951025;29;20027;-43
2021/01/23 07:12:08;;;;;;;5.20;1.25;;;;;;;;;;4950576;28;20494;-44
2021/01/23 07:14:35;;;;;;;9.00;1.65;;;;;;;;;;4950793;29;20027;-42
2021/01/23 07:17:02;;;;;;;5.30;0.90;;;;;;;;;;4934212;29;20035;-42
2021/01/23 07:19:29;;;;;;;8.75;1.33;;;;;;;;;;4950794;28;20101;-44
2021/01/23 07:21:56;;;;;;;11.50;1.65;;;;;;;;;;4950551;28;20027;-40
2021/01/23 07:24:23;;;;;;;11.68;1.58;;;;;;;;;;4950794;29;20031;-45
2021/01/23 07:26:51;;;;;;;8.70;1.23;;;;;;;;;;4950931;29;20031;-44
2021/01/23 07:29:18;;;;;;;8.95;0.90;;;;;;;;;;4950907;29;20030;-42
2021/01/23 07:31:47;;;;;;;7.45;1.15;;;;;;;;;;4950116;28;20031;-48
2021/01/23 07:34:14;;;;;;;6.65;1.20;;;;;;;;;;4950629;28;20027;-48
2021/01/23 07:36:43;;;;;;;4.18;1.05;;;;;;;;;;4950904;29;20071;-41
2021/01/23 07:39:12;;;;;;;6.68;1.42;;;;;;;;;;4933315;29;20023;-44
2021/01/23 07:41:41;;;;;;;8.95;1.42;;;;;;;;;;4950054;28;20023;-43
2021/01/23 07:44:11;;;;;;;11.32;1.30;;;;;;;;;;4950772;28;20015;-42
2021/01/23 07:46:39;;;;;;;10.60;1.33;;;;;;;;;;4950876;28;20464;-42
2021/01/23 07:49:07;;;;;;;5.93;1.10;;;;;;;;;;4950260;28;20055;-46
2021/01/23 07:51:34;;;;;;;4.65;1.48;;;;;;;;;;4949605;28;20082;-40
2021/01/23 07:54:04;;;;;;;10.52;1.58;;;;;;;;;;4950543;28;20110;-45
2021/01/23 07:56:31;;;;;;;6.47;1.30;;;;;;;;;;4950581;29;20028;-40
2021/01/23 07:58:58;;;;;;;8.10;1.63;;;;;;;;;;4950043;28;20042;-42
2021/01/23 08:01:26;;;;;;;7.97;1.30;;;;;;;;;;4950032;28;20218;-40
2021/01/23 08:03:53;;;;;;;5.85;1.85;;;;;;;;;;4950517;28;20020;-43
2021/01/23 08:06:24;;;;;;;7.68;1.48;;;;;;;;;;4950458;28;20027;-42
2021/01/23 08:08:52;;;;;;;8.32;1.20;;;;;;;;;;4950247;29;20470;-41
2021/01/23 08:11:35;;;;;;;9.43;1.20;;;;;;;;;;4952052;28;20036;-43
2021/01/23 08:14:13;;;;;;;10.77;1.33;;;;;;;;;;4953431;28;20029;-41
2021/01/23 08:16:56;;;;;;;3.30;1.15;;;;;;;;;;4953553;29;20031;-43
2021/01/23 08:19:23;;;;;;;7.95;1.40;;;;;;;;;;4953187;28;20039;-42
2021/01/23 08:22:20;;;;;;;7.35;1.10;;;;;;;;;;4953338;29;20031;-41
2021/01/23 08:24:47;;;;;;;4.53;1.08;;;;;;;;;;4965377;28;20536;-42
2021/01/23 08:27:16;;;;;;;6.78;1.25;;;;;;;;;;4953401;28;20117;-46
2021/01/23 08:29:47;;;;;;;8.10;1.00;;;;;;;;;;4953128;28;20027;-49
2021/01/23 08:32:15;;;;;;;6.43;1.15;;;;;;;;;;4953194;28;20035;-56
2021/01/23 08:34:42;;;;;;;8.15;1.40;;;;;;;;;;4953230;28;20023;-58
2021/01/23 08:37:09;;;;;;;7.05;1.38;;;;;;;;;;4953378;28;20471;-53
2021/01/23 08:39:58;;;;;;;11.82;2.40;;;;;;;;;;4953172;28;20102;-43
2021/01/23 08:42:25;;;;;;;6.40;1.27;;;;;;;;;;4953326;28;20031;-42
2021/01/23 08:44:52;;;;;;;6.00;1.30;;;;;;;;;;4952782;29;20402;-44
2021/01/23 08:47:19;;;;;;;10.32;1.25;;;;;;;;;;4953111;29;20020;-53
2021/01/23 08:49:46;;;;;;;9.60;1.60;;;;;;;;;;4952919;29;20073;-47
2021/01/23 08:52:13;;;;;;;7.78;1.38;;;;;;;;;;4952958;28;20098;-42
2021/01/23 08:54:41;;;;;;;6.68;1.10;;;;;;;;;;4952778;29;20023;-44
2021/01/23 08:57:08;;;;;;;7.45;1.10;;;;;;;;;;4952658;28;20027;-46
2021/01/23 08:59:35;;;;;;;11.52;1.45;;;;;;;;;;4952678;28;20529;-52
2021/01/23 09:02:02;;;;;;;7.30;1.20;;;;;;;;;;4953186;28;21097;-44
2021/01/23 09:04:29;;;;;;;8.75;1.05;;;;;;;;;;4952445;29;20019;-46
2021/01/23 09:06:56;;;;;;;12.40;1.15;;;;;;;;;;4952633;28;20023;-42
2021/01/23 09:09:23;;;;;;;9.57;1.95;;;;;;;;;;4952934;28;20025;-48
2021/01/23 09:11:51;;;;;;;5.47;1.00;;;;;;;;;;4952857;28;20054;-54
2021/01/23 09:14:18;;;;;;;4.70;1.40;;;;;;;;;;4952382;28;20031;-56
2021/01/23 09:16:45;;;;;;;9.88;1.38;;;;;;;;;;4952515;29;20021;-50
2021/01/23 09:19:12;;;;;;;12.45;1.40;;;;;;;;;;4952752;28;20027;-52
2021/01/23 09:21:39;;;;;;;11.60;1.30;;;;;;;;;;4952411;28;20094;-56
2021/01/23 09:24:10;;;;;;;11.02;1.80;;;;;;;;;;4952042;28;20020;-60
2021/01/23 09:26:37;;;;;;;9.85;1.58;;;;;;;;;;4952484;28;20029;-57
2021/01/23 09:29:04;;;;;;;5.65;1.42;;;;;;;;;;4952351;28;20024;-57
2021/01/23 09:31:31;;;;;;;9.95;1.63;;;;;;;;;;4952475;29;20387;-59
2021/01/23 09:33:58;;;;;;;7.05;1.92;;;;;;;;;;4952461;28;20023;-54
2021/01/23 09:36:25;;;;;;;7.85;1.55;;;;;;;;;;4951667;28;20126;-59
2021/01/23 09:38:53;;;;;;;9.48;1.63;;;;;;;;;;4952513;29;20023;-58
2021/01/23 09:41:20;;;;;;;7.28;1.45;;;;;;;;;;4952574;28;20027;-60
2021/01/23 09:43:47;;;;;;;10.82;1.75;;;;;;;;;;4934903;28;20395;-55
2021/01/23 09:46:14;;;;;;;6.65;1.30;;;;;;;;;;4951752;28;20089;-59
2021/01/23 09:48:41;;;;;;;8.23;1.58;;;;;;;;;;4952386;28;20498;-60
2021/01/23 09:51:08;;;;;;;4.05;1.35;;;;;;;;;;4951958;28;20491;-51
2021/01/23 09:53:35;;;;;;;6.72;1.63;;;;;;;;;;4951855;29;20069;-55
2021/01/23 09:56:03;;;;;;;7.75;1.58;;;;;;;;;;4951613;28;20054;-59
2021/01/23 09:58:29;;;;;;;10.77;1.45;;;;;;;;;;4952090;28;20114;-46
2021/01/23 10:00:56;;;;;;;15.63;1.85;;;;;;;;;;4935174;29;20498;-53
2021/01/23 10:03:23;;;;;;;10.68;1.90;;;;;;;;;;4952010;28;20027;-57
2021/01/23 10:05:51;;;;;;;7.47;1.30;;;;;;;;;;4951473;29;20032;-53
2021/01/23 10:08:18;;;;;;;10.30;1.70;;;;;;;;;;4951812;28;20016;-51
2021/01/23 10:10:45;;;;;;;8.63;1.75;;;;;;;;;;4934878;29;20023;-52
2021/01/23 10:13:12;;;;;;;6.85;1.38;;;;;;;;;;4951567;28;20031;-53
2021/01/23 10:15:39;;;;;;;12.25;1.63;;;;;;;;;;4951362;28;20020;-56
2021/01/23 10:18:06;;;;;;;9.05;1.60;;;;;;;;;;4951922;28;20058;-60
2021/01/23 10:20:33;;;;;;;6.35;1.50;;;;;;;;;;4947290;28;20475;-42
2021/01/23 10:23:00;;;;;;;10.13;1.42;;;;;;;;;;4932327;29;20055;-43
2021/01/23 10:25:27;;;;;;;15.57;2.10;;;;;;;;;;4932619;29;20038;-44
2021/01/23 10:27:54;;;;;;;8.30;1.30;;;;;;;;;;4932234;29;20024;-42
2021/01/23 10:30:22;;;;;;;13.98;1.98;;;;;;;;;;4932533;29;20038;-43
2021/01/23 10:32:49;;;;;;;13.05;1.95;;;;;;;;;;4931744;28;20093;-41
2021/01/23 10:35:17;;;;;;;10.02;2.10;;;;;;;;;;4932355;29;20028;-40
2021/01/23 10:37:44;;;;;;;14.63;2.67;;;;;;;;;;4932051;29;20024;-42
2021/01/23 10:40:11;;;;;;;15.73;1.83;;;;;;;;;;4915598;28;20482;-42
2021/01/23 10:42:38;;;;;;;9.05;1.33;;;;;;;;;;4932176;29;20028;-41
2021/01/23 10:45:07;;;;;;;15.10;1.73;;;;;;;;;;4932363;29;20375;-41
2021/01/23 10:47:35;;;;;;;18.90;2.15;;;;;;;;;;4932064;28;20463;-44
2021/01/23 10:50:03;;;;;;;5.05;1.50;;;;;;;;;;4932140;29;20032;-43
2021/01/23 10:52:36;;;;;;;10.27;1.63;;;;;;;;;;4931860;28;20059;-42
2021/01/23 10:55:03;;;;;;;9.00;1.73;;;;;;;;;;4932148;29;20035;-41
2021/01/23 10:57:30;;;;;;;6.97;1.77;;;;;;;;;;4931919;29;20506;-43
2021/01/23 10:59:57;;;;;;;6.28;1.77;;;;;;;;;;4931813;29;20521;-41
2021/01/23 11:02:24;;;;;;;12.80;2.17;;;;;;;;;;4931780;29;20486;-41
2021/01/23 11:04:51;;;;;;;10.63;1.83;;;;;;;;;;4932609;29;20032;-43
2021/01/23 11:07:18;;;;;;;11.85;1.60;;;;;;;;;;4931779;29;20034;-41
2021/01/23 11:09:45;;;;;;;11.70;2.40;;;;;;;;;;4914828;28;20457;-42
2021/01/23 11:12:12;;;;;;;15.27;2.13;;;;;;;;;;4931744;29;20071;-42
2021/01/23 11:14:39;;;;;;;13.38;1.83;;;;;;;;;;4932082;29;20028;-41
2021/01/23 11:17:06;;;;;;;4.82;1.50;;;;;;;;;;4931965;29;20027;-44
2021/01/23 11:19:33;;;;;;;7.55;2.15;;;;;;;;;;4931418;29;20081;-40
2021/01/23 11:22:00;;;;;;;5.32;1.60;;;;;;;;;;4931581;29;20027;-40
2021/01/23 11:24:29;;;;;;;9.57;1.73;;;;;;;;;;4931933;29;20024;-40
2021/01/23 11:26:56;;;;;;;18.10;1.52;;;;;;;;;;4932014;29;20051;-42
2021/01/23 11:29:24;;;;;;;6.55;1.48;;;;;;;;;;4931351;28;20019;-42
2021/01/23 11:31:51;;;;;;;9.75;1.33;;;;;;;;;;4931608;28;20051;-41
2021/01/23 11:34:18;;;;;;;6.88;1.15;;;;;;;;;;4931909;28;20103;-41
2021/01/23 11:36:45;;;;;;;9.30;1.70;;;;;;;;;;4931796;29;20131;-42
2021/01/23 11:39:12;;;;;;;9.20;1.60;;;;;;;;;;4931113;28;20480;-41
2021/01/23 11:41:39;;;;;;;6.32;1.42;;;;;;;;;;4931451;29;20028;-44
2021/01/23 11:44:07;;;;;;;6.80;1.50;;;;;;;;;;4932109;29;20031;-60
2021/01/23 11:46:34;;;;;;;7.35;1.40;;;;;;;;;;4934937;29;20028;-60
2021/01/23 11:49:02;;;;;;;12.85;1.60;;;;;;;;;;4934026;28;20450;-59
2021/01/23 11:51:29;;;;;;;8.88;1.60;;;;;;;;;;4934387;29;20040;-58
2021/01/23 11:53:57;;;;;;;5.65;1.70;;;;;;;;;;4934947;29;20034;-54
2021/01/23 11:56:24;;;;;;;12.50;2.63;;;;;;;;;;4934343;28;20031;-41
2021/01/23 11:58:51;;;;;;;10.43;1.45;;;;;;;;;;4923208;29;20418;-52
2021/01/23 12:01:18;;;;;;;14.43;2.10;;;;;;;;;;4943781;28;20085;-54
2021/01/23 12:03:45;;;;;;;7.82;2.05;;;;;;;;;;4946305;28;20037;-51
2021/01/23 12:06:12;;;;;;;17.25;1.80;;;;;;;;;;4940260;28;20030;-56
2021/01/23 12:08:39;;;;;;;22.00;1.45;;;;;;;;;;4948312;28;20046;-45
2021/01/23 12:11:06;;;;;;;19.08;2.58;;;;;;;;;;4950179;28;20016;-48
2021/01/23 12:13:33;;;;;;;25.98;2.50;;;;;;;;;;4943112;28;20086;-55
2021/01/23 12:16:00;;;;;;;15.48;2.13;;;;;;;;;;4949197;28;20021;-48
2021/01/23 12:18:28;;;;;;;17.65;1.77;;;;;;;;;;4953784;28;20037;-57
2021/01/23 12:20:55;;;;;;;16.35;2.00;;;;;;;;;;4964577;28;20384;-52
2021/01/23 12:23:22;;;;;;;44.65;2.80;;;;;;;;;;4969953;28;20472;-44
2021/01/23 12:25:49;;;;;;;38.63;2.60;;;;;;;;;;4969172;28;20023;-43
2021/01/23 12:28:16;;;;;;;11.80;2.15;;;;;;;;;;4990264;28;20057;-45
2021/01/23 12:30:43;;;;;;;19.88;2.10;;;;;;;;;;4964568;28;20089;-44
2021/01/23 12:33:10;;;;;;;22.17;2.00;;;;;;;;;;4963149;28;20475;-41
2021/01/23 12:35:37;;;;;;;14.48;1.88;;;;;;;;;;4968150;28;20039;-39
2021/01/23 12:38:04;;;;;;;16.05;1.73;;;;;;;;;;4979658;28;20027;-53
2021/01/23 12:40:32;;;;;;;14.95;2.08;;;;;;;;;;4968388;28;20051;-50
2021/01/23 12:42:59;;;;;;;16.05;2.47;;;;;;;;;;4965924;28;20027;-52
2021/01/23 12:45:26;;;;;;;19.25;1.67;;;;;;;;;;4956235;28;20028;-44
2021/01/23 12:47:53;;;;;;;23.48;2.30;;;;;;;;;;4944619;28;20027;-44
2021/01/23 12:50:20;;;;;;;18.45;2.67;;;;;;;;;;4949701;28;20483;-43
2021/01/23 12:52:47;;;;;;;23.77;3.00;;;;;;;;;;4988702;28;20063;-44
2021/01/23 12:55:15;;;;;;;13.65;2.50;;;;;;;;;;4946109;28;20029;-47
2021/01/23 12:57:42;;;;;;;18.50;2.08;;;;;;;;;;4963778;28;20024;-47
2021/01/23 13:00:12;;;;;;;18.90;2.53;;;;;;;;;;4961827;28;20026;-46
2021/01/23 13:02:39;;;;;;;14.93;1.77;;;;;;;;;;4976239;28;20034;-46
2021/01/23 13:05:08;;;;;;;24.83;2.10;;;;;;;;;;4972570;28;20540;-44
2021/01/23 13:07:35;;;;;;;16.83;1.90;;;;;;;;;;4981228;28;20009;-41
2021/01/23 13:10:02;;;;;;;23.25;2.45;;;;;;;;;;4983726;28;20028;-44
2021/01/23 13:12:29;;;;;;;19.02;2.10;;;;;;;;;;5005769;28;20043;-41
2021/01/23 13:14:56;;;;;;;23.65;2.03;;;;;;;;;;4962815;28;20059;-40
2021/01/23 13:17:23;;;;;;;15.40;2.30;;;;;;;;;;4960637;28;20081;-42
2021/01/23 13:19:52;;;;;;;23.08;2.33;;;;;;;;;;4959871;28;20096;-45
2021/01/23 13:22:19;;;;;;;19.40;2.42;;;;;;;;;;4960743;28;20035;-42
2021/01/23 13:24:46;;;;;;;20.17;2.30;;;;;;;;;;4950693;28;20508;-48
2021/01/23 13:27:13;;;;;;;30.40;2.90;;;;;;;;;;4949123;28;20031;-43
2021/01/23 13:29:40;;;;;;;17.83;2.40;;;;;;;;;;4953656;28;20030;-42
2021/01/23 13:32:07;;;;;;;23.48;2.50;;;;;;;;;;4944045;28;20039;-45
2021/01/23 13:34:35;;;;;;;29.80;2.83;;;;;;;;;;4945154;28;20031;-42
2021/01/23 13:37:02;;;;;;;29.05;2.97;;;;;;;;;;4951576;28;20370;-44
2021/01/23 13:39:29;;;;;;;24.02;2.45;;;;;;;;;;4959423;28;20498;-42
2021/01/23 13:41:57;;;;;;;25.80;3.50;;;;;;;;;;4939251;28;20035;-44
2021/01/23 13:44:25;;;;;;;25.40;3.05;;;;;;;;;;4930732;29;20475;-43
2021/01/23 13:46:52;;;;;;;26.77;2.78;;;;;;;;;;4932098;29;20019;-44
2021/01/23 13:49:19;;;;;;;28.33;3.22;;;;;;;;;;4932709;29;20035;-45
2021/01/23 13:51:46;;;;;;;19.90;3.42;;;;;;;;;;4932432;29;20047;-40
2021/01/23 13:54:13;;;;;;;35.25;3.97;;;;;;;;;;4932306;29;20034;-41
2021/01/23 13:56:40;;;;;;;31.35;3.63;;;;;;;;;;4933002;29;20023;-43
2021/01/23 13:59:07;;;;;;;31.20;3.65;;;;;;;;;;4932746;29;20046;-43
2021/01/23 14:01:34;;;;;;;34.13;4.07;;;;;;;;;;4932712;28;20069;-41
2021/01/23 14:04:01;;;;;;;31.67;3.22;;;;;;;;;;4915446;28;20406;-41
2021/01/23 14:06:28;;;;;;;31.58;3.13;;;;;;;;;;4932996;29;20028;-42
2021/01/23 14:08:55;;;;;;;31.80;4.43;;;;;;;;;;4914829;28;20028;-44
2021/01/23 14:11:22;;;;;;;28.77;4.03;;;;;;;;;;4932637;29;20498;-41
2021/01/23 14:13:49;;;;;;;35.22;3.80;;;;;;;;;;4931333;29;20042;-43
2021/01/23 14:16:19;;;;;;;34.88;4.00;;;;;;;;;;4932568;29;20778;-38
2021/01/23 14:18:47;;;;;;;28.95;4.10;;;;;;;;;;4932890;28;20134;-40
2021/01/23 14:21:14;;;;;;;27.38;3.63;;;;;;;;;;4932600;28;20468;-41
2021/01/23 14:23:41;;;;;;;28.67;4.07;;;;;;;;;;4932083;29;20039;-41
2021/01/23 14:26:08;;;;;;;31.80;3.75;;;;;;;;;;4932593;29;20027;-44
2021/01/23 14:28:35;;;;;;;25.70;3.58;;;;;;;;;;4932729;28;20027;-43
2021/01/23 14:31:02;;;;;;;33.35;4.28;;;;;;;;;;4932191;29;20019;-42
2021/01/23 14:33:29;;;;;;;34.50;4.07;;;;;;;;;;4932447;28;20039;-42
2021/01/23 14:35:57;;;;;;;30.52;4.10;;;;;;;;;;4932205;29;20051;-42
2021/01/23 14:38:24;;;;;;;33.08;3.97;;;;;;;;;;4915560;29;20027;-42
2021/01/23 14:40:51;;;;;;;25.05;3.63;;;;;;;;;;4932158;29;20035;-48
2021/01/23 14:43:18;;;;;;;28.55;4.63;;;;;;;;;;4932253;29;20072;-43
2021/01/23 14:45:45;;;;;;;37.45;4.95;;;;;;;;;;4931969;29;20058;-41